Terminal Aerodrome Forecast
Issued by NWS

Home | Current Version | Previous Version | Text Only | Print | Product List | Glossary On
Versions: 1 2 3 4 5 6 7 8 9 10 11 12 13 14 15 16 17 18 19 20 21 22 23 24 25 26 27
000
FTUS41 KGYX 251120
TAFLEB
TAF
KLEB 251120Z 2512/2612 36005KT P6SM BKN020 OVC040
      TEMPO 2517/2521 3SM -SN BKN007
     FM252100 36005KT P6SM FEW025 SCT100=

USA.gov is the U.S. government's official web portal to all federal, state and local government web resources and services.